Time;durP1;ratioP1;P1;durP2;ratioP2;P2;SDS_P1;SDS_P2;PMS_P1;PMS_P2;Temp;Humidity;BMP_temperature;BMP_pressure;BME280_temperature;BME280_humidity;BME280_pressure;Samples;Min_cycle;Max_cycle;Signal;HPM_P1;HPM_P2
2023/05/05 00:00:58;;;;;;;16.17;11.38;;;;;;;15.66;66.10;101351.13;6163636;23;20017;-73
2023/05/05 00:03:24;;;;;;;12.98;11.57;;;;;;;15.66;65.78;101350.22;6157935;23;20431;-73
2023/05/05 00:05:51;;;;;;;15.82;11.45;;;;;;;15.68;66.20;101351.06;6180531;23;20062;-73
2023/05/05 00:08:17;;;;;;;17.90;11.40;;;;;;;15.72;65.82;101344.81;6157500;23;20087;-73
2023/05/05 00:10:47;;;;;;;15.02;11.95;;;;;;;15.70;65.73;101358.06;6157258;23;20517;-73
2023/05/05 00:13:13;;;;;;;15.65;12.00;;;;;;;15.68;65.71;101354.56;6182696;23;20005;-73
2023/05/05 00:15:44;;;;;;;14.50;11.68;;;;;;;15.65;65.41;101343.22;6156963;23;20416;-73
2023/05/05 00:18:10;;;;;;;15.80;11.80;;;;;;;15.62;66.09;101340.66;6181857;23;20088;-72
2023/05/05 00:20:36;;;;;;;15.68;11.80;;;;;;;15.55;66.29;101332.88;6181229;23;20008;-72
2023/05/05 00:23:02;;;;;;;13.95;11.43;;;;;;;15.53;65.61;101334.69;6157821;23;20035;-72
2023/05/05 00:25:28;;;;;;;16.23;11.68;;;;;;;15.51;66.25;101338.28;6182014;23;20005;-73
2023/05/05 00:27:54;;;;;;;16.13;11.68;;;;;;;15.48;66.19;101352.41;6157892;23;20071;-73
2023/05/05 00:30:19;;;;;;;13.98;11.55;;;;;;;15.45;66.76;101349.84;6157090;23;20363;-73
2023/05/05 00:32:48;;;;;;;15.40;11.48;;;;;;;15.44;67.17;101355.19;6183629;23;20420;-73
2023/05/05 00:35:14;;;;;;;15.75;11.63;;;;;;;15.41;68.09;101351.72;6156782;23;20005;-73
2023/05/05 00:37:40;;;;;;;18.42;12.38;;;;;;;15.41;68.52;101364.91;6182067;23;20051;-73
2023/05/05 00:40:06;;;;;;;18.45;12.75;;;;;;;15.41;68.78;101366.66;6157233;23;20021;-73
2023/05/05 00:42:43;;;;;;;15.95;12.30;;;;;;;15.38;67.69;101372.88;6132998;23;20125;-73
2023/05/05 00:45:10;;;;;;;16.40;12.63;;;;;;;15.35;69.57;101372.97;6182205;23;20328;-73
2023/05/05 00:47:37;;;;;;;15.50;12.82;;;;;;;15.33;70.21;101360.69;6181791;23;20044;-73
2023/05/05 00:50:05;;;;;;;17.75;13.45;;;;;;;15.33;70.99;101352.78;6132945;23;20005;-73
2023/05/05 00:52:31;;;;;;;17.15;14.60;;;;;;;15.32;71.73;101345.78;6183198;23;20430;-73
2023/05/05 00:54:57;;;;;;;18.45;14.98;;;;;;;15.29;71.75;101344.06;6182297;23;20013;-73
2023/05/05 00:57:24;;;;;;;17.73;14.43;;;;;;;15.30;71.98;101363.41;6133448;23;20020;-73
2023/05/05 00:59:50;;;;;;;18.80;15.43;;;;;;;15.31;72.66;101378.34;6156730;23;20076;-73
2023/05/05 01:02:15;;;;;;;20.90;15.90;;;;;;;15.27;72.43;101377.56;6181930;23;20508;-73
2023/05/05 01:04:41;;;;;;;20.40;17.15;;;;;;;15.29;72.73;101372.25;6184092;23;20001;-73
2023/05/05 01:07:32;;;;;;;18.67;16.40;;;;;;;15.29;72.31;101373.13;6156862;23;20009;-74
2023/05/05 01:10:10;;;;;;;19.88;17.42;;;;;;;15.24;72.38;101367.94;6181841;23;20079;-73
2023/05/05 01:13:06;;;;;;;17.85;15.95;;;;;;;15.18;72.92;101375.97;6182350;23;20005;-73
2023/05/05 01:15:47;;;;;;;19.98;15.63;;;;;;;15.18;72.88;101385.69;6182933;23;20001;-73
2023/05/05 01:18:26;;;;;;;19.52;15.80;;;;;;;15.15;72.50;101391.91;6182472;23;20080;-74
2023/05/05 01:21:09;;;;;;;18.33;15.38;;;;;;;15.12;72.65;101375.28;6181076;23;20059;-73
2023/05/05 01:23:48;;;;;;;19.13;14.50;;;;;;;15.12;72.47;101397.25;6182073;23;20040;-73
2023/05/05 01:26:42;;;;;;;16.35;14.57;;;;;;;15.12;72.27;101391.13;6183216;23;20008;-73
2023/05/05 01:29:33;;;;;;;17.90;15.02;;;;;;;15.11;72.69;101392.00;6183241;23;20596;-72
2023/05/05 01:32:03;;;;;;;17.75;14.75;;;;;;;15.10;72.14;101395.53;6185668;23;20424;-73
2023/05/05 01:34:35;;;;;;;15.60;13.90;;;;;;;15.09;71.90;101399.09;6183714;23;20084;-73
2023/05/05 01:37:17;;;;;;;17.00;13.60;;;;;;;15.10;71.28;101401.72;6182712;23;20015;-73
2023/05/05 01:39:43;;;;;;;15.52;12.77;;;;;;;15.07;71.82;101399.13;6183730;23;20339;-72
2023/05/05 01:42:13;;;;;;;14.63;12.38;;;;;;;15.09;71.44;101399.09;6184194;23;20028;-72
2023/05/05 01:44:42;;;;;;;15.13;12.35;;;;;;;15.06;71.65;101387.69;6183544;23;20008;-72
2023/05/05 01:47:12;;;;;;;13.10;11.73;;;;;;;15.04;71.06;101378.94;6184168;23;20008;-72
2023/05/05 01:49:39;;;;;;;12.70;10.98;;;;;;;14.99;71.25;101369.41;6184117;23;20136;-72
2023/05/05 01:52:08;;;;;;;13.70;11.10;;;;;;;14.97;70.99;101363.25;6182517;23;20005;-72
2023/05/05 01:54:34;;;;;;;14.13;10.73;;;;;;;14.97;70.63;101371.19;6159585;23;20023;-72
2023/05/05 01:57:03;;;;;;;11.88;10.45;;;;;;;14.95;70.66;101368.56;6134319;23;20092;-73
2023/05/05 01:59:31;;;;;;;14.40;10.70;;;;;;;14.92;70.81;101373.94;6181031;23;20106;-73
2023/05/05 02:01:59;;;;;;;11.90;9.90;;;;;;;14.94;70.03;101381.81;6129610;23;20252;-73
2023/05/05 02:04:27;;;;;;;12.30;9.73;;;;;;;14.86;70.35;101374.06;6129647;23;20344;-73
2023/05/05 02:06:55;;;;;;;13.13;9.73;;;;;;;14.82;70.47;101372.38;6128019;23;20008;-73
2023/05/05 02:09:23;;;;;;;11.60;10.07;;;;;;;14.71;70.83;101375.22;6105491;23;20013;-73
2023/05/05 02:11:49;;;;;;;12.48;9.75;;;;;;;14.69;70.45;101379.69;6155486;23;20001;-73
2023/05/05 02:14:18;;;;;;;12.93;9.13;;;;;;;14.65;70.50;101388.56;6080270;23;20396;-73
2023/05/05 02:16:44;;;;;;;12.20;9.60;;;;;;;14.58;71.24;101384.28;6105018;23;20009;-73
2023/05/05 02:19:12;;;;;;;13.88;9.73;;;;;;;14.44;71.45;101393.31;6104620;23;20013;-73
2023/05/05 02:21:37;;;;;;;12.82;9.20;;;;;;;14.30;71.99;101395.34;6127966;23;20024;-73
2023/05/05 02:24:03;;;;;;;11.25;10.02;;;;;;;14.16;72.47;101390.31;6080743;23;20093;-73
2023/05/05 02:26:33;;;;;;;12.65;9.18;;;;;;;14.07;72.36;101386.09;6104604;23;20062;-73
2023/05/05 02:29:33;;;;;;;13.23;9.30;;;;;;;14.08;71.18;101387.84;6104951;23;20063;-73
2023/05/05 02:32:10;;;;;;;10.32;8.93;;;;;;;13.93;72.08;101390.72;6082767;23;20115;-73
2023/05/05 02:34:41;;;;;;;12.25;9.50;;;;;;;13.77;73.33;101385.72;6128333;23;20400;-73
2023/05/05 02:37:11;;;;;;;13.30;9.23;;;;;;;13.74;72.47;101396.28;6128009;23;20167;-73
2023/05/05 02:40:04;;;;;;;11.48;9.05;;;;;;;13.68;72.94;101394.63;6128955;23;20012;-73
2023/05/05 02:42:41;;;;;;;11.57;8.75;;;;;;;13.62;71.72;101399.09;6128891;23;20013;-73
2023/05/05 02:45:14;;;;;;;12.35;8.82;;;;;;;13.55;72.63;101402.72;6128748;23;20113;-73
2023/05/05 02:47:40;;;;;;;9.75;7.60;;;;;;;13.49;73.43;101409.84;6128826;23;20009;-73
2023/05/05 02:50:07;;;;;;;9.70;7.72;;;;;;;13.45;72.90;101413.41;6104496;23;20009;-73
2023/05/05 02:52:33;;;;;;;11.10;7.78;;;;;;;13.34;73.69;101412.66;6103786;23;20013;-73
2023/05/05 02:55:00;;;;;;;13.02;7.78;;;;;;;13.29;73.21;101420.63;6129309;23;20009;-73
2023/05/05 02:57:50;;;;;;;11.60;7.80;;;;;;;13.20;74.03;101425.13;6080987;23;20017;-73
2023/05/05 03:00:25;;;;;;;;;;;;;;;13.33;71.31;101427.59;6128034;23;20429;-73
2023/05/05 03:03:05;;;;;;;9.25;6.63;;;;;;;13.11;73.12;101427.00;6128620;23;19905;-73
2023/05/05 03:05:50;;;;;;;9.77;7.35;;;;;;;13.06;73.55;101415.69;6127449;23;20037;-73
2023/05/05 03:08:19;;;;;;;11.60;7.32;;;;;;;12.98;73.94;101415.75;6129118;23;20010;-73
2023/05/05 03:11:06;;;;;;;9.65;7.15;;;;;;;12.95;73.30;101417.56;6128306;23;20001;-72
2023/05/05 03:13:38;;;;;;;9.60;7.20;;;;;;;12.80;74.86;101415.97;6128557;23;20009;-72
2023/05/05 03:16:06;;;;;;;10.88;7.50;;;;;;;12.74;75.35;101421.31;6127787;23;20002;-73
2023/05/05 03:18:36;;;;;;;10.00;7.53;;;;;;;12.66;74.83;101418.78;6105454;23;20328;-72
2023/05/05 03:21:07;;;;;;;8.90;7.20;;;;;;;12.63;74.63;101419.69;6126771;23;20005;-72
2023/05/05 03:23:34;;;;;;;9.88;7.10;;;;;;;12.52;76.01;101412.81;6105490;23;20338;-72
2023/05/05 03:25:59;;;;;;;8.75;6.97;;;;;;;12.47;74.91;101423.38;6128659;23;20092;-72
2023/05/05 03:28:25;;;;;;;8.68;6.88;;;;;;;12.44;74.25;101423.38;6128568;23;20044;-72
2023/05/05 03:30:52;;;;;;;9.20;6.72;;;;;;;12.35;75.32;101426.97;6127976;23;20001;-72
2023/05/05 03:33:17;;;;;;;6.85;5.35;;;;;;;12.35;75.98;101426.13;6080377;23;20152;-72
2023/05/05 03:35:42;;;;;;;7.35;5.95;;;;;;;12.29;75.58;101432.31;6153319;23;20133;-72
2023/05/05 03:38:08;;;;;;;7.07;5.72;;;;;;;12.23;76.35;101438.47;6080467;23;20013;-72
2023/05/05 03:40:33;;;;;;;7.82;5.43;;;;;;;12.19;75.86;101439.38;6103925;23;20013;-72
2023/05/05 03:42:59;;;;;;;6.05;5.15;;;;;;;12.13;77.10;101434.19;6103815;23;20120;-72
2023/05/05 03:45:25;;;;;;;9.68;5.10;;;;;;;12.10;76.99;101440.34;6079999;23;20019;-72
2023/05/05 03:47:50;;;;;;;8.60;6.13;;;;;;;12.05;76.84;101436.91;6128470;23;20012;-72
2023/05/05 03:50:16;;;;;;;9.55;7.03;;;;;;;11.99;78.65;101439.56;6102869;23;20305;-73
2023/05/05 03:52:41;;;;;;;8.68;7.35;;;;;;;11.92;76.85;101430.84;6103340;23;20012;-73
2023/05/05 03:55:07;;;;;;;10.82;7.60;;;;;;;11.90;76.73;101432.59;6080162;23;20009;-73
2023/05/05 03:57:33;;;;;;;12.57;8.57;;;;;;;11.87;77.54;101437.88;6080488;23;20428;-73
2023/05/05 03:59:59;;;;;;;16.05;9.43;;;;;;;11.86;78.94;101451.88;6115792;23;20032;-73
2023/05/05 04:02:24;;;;;;;15.32;9.98;;;;;;;11.84;79.25;101442.25;6156554;23;20040;-73
2023/05/05 04:04:50;;;;;;;17.40;8.38;;;;;;;11.82;78.65;101449.28;6158053;23;20011;-73
2023/05/05 04:07:15;;;;;;;14.75;10.05;;;;;;;11.86;79.47;101446.63;6132295;23;20013;-72
2023/05/05 04:09:43;;;;;;;15.48;11.70;;;;;;;11.85;80.69;101449.25;6183255;23;20112;-72
2023/05/05 04:12:12;;;;;;;14.82;10.95;;;;;;;11.85;79.68;101454.53;6134816;23;20008;-72
2023/05/05 04:14:38;;;;;;;15.90;11.95;;;;;;;11.84;80.70;101460.66;6157582;23;20063;-72
2023/05/05 04:17:03;;;;;;;18.80;13.48;;;;;;;11.83;81.33;101459.78;6157746;23;20013;-72
2023/05/05 04:19:34;;;;;;;16.65;13.52;;;;;;;11.86;81.00;101467.63;6157988;23;20013;-72
2023/05/05 04:22:00;;;;;;;18.80;14.55;;;;;;;11.87;81.75;101476.41;6179960;23;20501;-72
2023/05/05 04:24:26;;;;;;;19.30;15.00;;;;;;;11.85;81.99;101470.28;6182689;23;20044;-67
2023/05/05 04:26:51;;;;;;;20.63;14.73;;;;;;;11.87;81.63;101463.28;6132712;23;20008;-67
2023/05/05 04:29:17;;;;;;;15.73;13.95;;;;;;;11.89;80.90;101470.22;6155013;23;20063;-67
2023/05/05 04:31:43;;;;;;;17.23;13.13;;;;;;;11.90;80.70;101474.63;6156171;23;20020;-67
2023/05/05 04:34:09;;;;;;;18.02;13.98;;;;;;;11.87;80.81;101472.00;6181397;23;20008;-67
2023/05/05 04:36:34;;;;;;;19.75;14.90;;;;;;;11.97;81.92;101480.72;6157223;23;20434;-68
2023/05/05 04:39:00;;;;;;;19.90;14.20;;;;;;;12.05;81.26;101471.06;6133453;23;20441;-67
2023/05/05 04:41:26;;;;;;;18.23;14.25;;;;;;;12.13;80.93;101479.72;6182162;23;20013;-67
2023/05/05 04:43:53;;;;;;;18.52;15.02;;;;;;;12.20;80.94;101482.31;6157478;23;20116;-67
2023/05/05 04:46:19;;;;;;;19.25;15.30;;;;;;;12.36;80.98;101475.16;6157432;23;20067;-67
2023/05/05 04:48:45;;;;;;;18.17;14.18;;;;;;;12.43;79.82;101475.09;6156948;23;20091;-72
2023/05/05 04:51:11;;;;;;;17.42;14.75;;;;;;;12.48;80.25;101481.19;6130321;23;20012;-73
2023/05/05 04:53:37;;;;;;;19.08;15.38;;;;;;;12.54;79.86;101475.00;6133458;23;20060;-72
2023/05/05 04:56:02;;;;;;;16.20;14.15;;;;;;;12.48;79.84;101470.69;6133136;23;20009;-72
2023/05/05 04:58:28;;;;;;;17.45;14.63;;;;;;;12.53;79.28;101473.25;6157839;23;20017;-72
2023/05/05 05:00:53;;;;;;;19.10;14.57;;;;;;;12.53;79.00;101481.13;6155998;23;20049;-72
2023/05/05 05:03:19;;;;;;;18.20;14.93;;;;;;;12.50;79.45;101481.16;6181726;23;20435;-72
2023/05/05 05:05:44;;;;;;;19.90;16.27;;;;;;;12.44;80.03;101476.84;6182899;23;20009;-73
2023/05/05 05:08:10;;;;;;;19.38;15.02;;;;;;;12.49;79.11;101479.41;6159517;23;20009;-73
2023/05/05 05:10:35;;;;;;;18.08;15.43;;;;;;;12.53;80.41;101482.88;6133772;23;20423;-72
2023/05/05 05:13:01;;;;;;;17.00;14.73;;;;;;;12.65;79.78;101474.88;6159880;23;20009;-72
2023/05/05 05:15:26;;;;;;;19.10;15.23;;;;;;;12.70;79.73;101478.34;6157674;23;20162;-72
2023/05/05 05:17:52;;;;;;;17.85;15.00;;;;;;;12.70;79.83;101472.19;6183668;23;20470;-72
2023/05/05 05:20:17;;;;;;;17.90;15.25;;;;;;;12.72;79.74;101479.19;6132206;23;20100;-72
2023/05/05 05:22:43;;;;;;;18.70;15.52;;;;;;;12.90;78.80;101474.59;6158186;23;20032;-72
2023/05/05 05:25:09;;;;;;;18.00;16.10;;;;;;;12.91;79.72;101469.31;6158875;23;20108;-72
2023/05/05 05:27:35;;;;;;;20.20;16.77;;;;;;;13.02;80.66;101469.22;6179556;23;20000;-72
2023/05/05 05:30:01;;;;;;;19.40;16.38;;;;;;;13.16;79.18;101467.28;6157536;23;20462;-72
2023/05/05 05:32:28;;;;;;;22.00;17.02;;;;;;;13.37;78.50;101481.09;6158968;23;20012;-67
2023/05/05 05:34:53;;;;;;;21.27;16.85;;;;;;;13.47;79.39;101479.22;6184036;23;20009;-67
2023/05/05 05:37:19;;;;;;;19.27;17.17;;;;;;;13.69;80.00;101482.41;6156643;23;20024;-67
2023/05/05 05:39:50;;;;;;;21.38;17.52;;;;;;;14.02;80.49;101488.06;6159083;23;20019;-67
2023/05/05 05:42:16;;;;;;;21.33;18.23;;;;;;;14.10;80.08;101483.53;6155784;23;20019;-67
2023/05/05 05:44:41;;;;;;;21.95;19.42;;;;;;;14.33;80.27;101474.38;6183094;23;20398;-68
2023/05/05 05:47:07;;;;;;;20.30;17.90;;;;;;;14.68;78.24;101478.19;6159138;23;20100;-67
2023/05/05 05:49:32;;;;;;;18.65;16.70;;;;;;;15.03;78.10;101492.47;6133762;23;20166;-67
2023/05/05 05:51:58;;;;;;;18.27;16.33;;;;;;;15.43;78.09;101499.56;6158053;23;20009;-67
2023/05/05 05:54:23;;;;;;;19.00;15.60;;;;;;;15.68;75.88;101491.09;6159006;23;20028;-67
2023/05/05 05:56:51;;;;;;;16.17;14.18;;;;;;;15.89;74.22;101493.28;6158606;23;20013;-67
2023/05/05 05:59:16;;;;;;;16.10;14.40;;;;;;;16.25;73.00;101500.34;6134617;23;20036;-67
2023/05/05 06:01:42;;;;;;;16.85;15.13;;;;;;;16.62;72.71;101502.03;6134392;23;20312;-67
2023/05/05 06:04:07;;;;;;;16.50;14.60;;;;;;;16.95;70.90;101512.66;6133885;23;20083;-67
2023/05/05 06:06:33;;;;;;;15.40;13.75;;;;;;;17.23;71.24;101526.00;6182689;23;20037;-67
2023/05/05 06:08:59;;;;;;;18.05;14.13;;;;;;;17.48;68.17;101538.50;6159430;23;20012;-68
2023/05/05 06:11:25;;;;;;;16.10;14.35;;;;;;;17.84;68.55;101556.88;6133341;23;20021;-68
2023/05/05 06:13:51;;;;;;;16.02;14.20;;;;;;;17.92;65.42;101554.88;6156359;23;20017;-68
2023/05/05 06:16:16;;;;;;;18.50;14.98;;;;;;;18.29;66.86;101553.72;6158762;23;20084;-68
2023/05/05 06:18:42;;;;;;;16.38;14.15;;;;;;;18.59;64.32;101547.44;6158178;23;20027;-68
2023/05/05 06:21:07;;;;;;;14.57;12.80;;;;;;;19.03;65.25;101543.25;6133349;23;20087;-67
2023/05/05 06:23:33;;;;;;;14.30;12.60;;;;;;;19.26;64.06;101541.53;6159291;23;20328;-68
2023/05/05 06:25:58;;;;;;;17.80;13.38;;;;;;;19.37;61.26;101546.47;6157775;23;20017;-67
2023/05/05 06:28:24;;;;;;;15.73;12.63;;;;;;;19.56;61.96;101549.28;6158975;23;20339;-68
2023/05/05 06:30:50;;;;;;;18.38;12.98;;;;;;;19.81;61.32;101553.69;6133683;23;20397;-68
2023/05/05 06:33:16;;;;;;;16.10;12.57;;;;;;;20.11;59.67;101564.03;6183667;23;20162;-68
2023/05/05 06:35:42;;;;;;;15.45;12.43;;;;;;;20.49;59.18;101554.47;6182193;23;20013;-68
2023/05/05 06:38:08;;;;;;;14.93;11.48;;;;;;;20.56;58.57;101561.28;6184041;23;20005;-67
2023/05/05 06:40:34;;;;;;;17.15;12.77;;;;;;;20.93;56.87;101556.19;6183269;23;20005;-68
2023/05/05 06:43:00;;;;;;;16.85;13.30;;;;;;;21.01;57.51;101554.03;6158031;23;20446;-67
2023/05/05 06:45:25;;;;;;;16.33;13.65;;;;;;;21.31;57.74;101556.28;6133481;23;20096;-68
2023/05/05 06:47:51;;;;;;;16.90;13.30;;;;;;;21.84;57.69;101552.06;6182730;23;20032;-68
2023/05/05 06:50:17;;;;;;;16.80;13.55;;;;;;;22.00;55.95;101562.88;6158403;23;20328;-68
2023/05/05 06:52:42;;;;;;;16.42;14.43;;;;;;;22.35;55.74;101552.28;6183523;23;20005;-67
2023/05/05 06:55:08;;;;;;;16.10;13.18;;;;;;;22.22;53.60;101556.47;6183725;23;20096;-68
2023/05/05 06:57:34;;;;;;;13.85;12.35;;;;;;;22.51;54.24;101556.84;6158910;23;20005;-68
2023/05/05 07:00:04;;;;;;;15.37;11.40;;;;;;;22.32;52.73;101555.06;6133413;23;20028;-68
2023/05/05 07:02:30;;;;;;;13.35;10.95;;;;;;;22.89;53.09;101551.34;6159407;23;20365;-68
2023/05/05 07:04:55;;;;;;;14.50;10.27;;;;;;;22.99;52.59;101552.59;6158252;23;20099;-68
2023/05/05 07:07:22;;;;;;;15.30;11.45;;;;;;;23.06;52.92;101553.09;6132910;23;20058;-68
2023/05/05 07:09:47;;;;;;;12.77;10.73;;;;;;;22.79;50.92;101557.16;6133727;23;20423;-68
2023/05/05 07:12:13;;;;;;;14.50;10.63;;;;;;;23.07;50.77;101563.72;6158486;23;20055;-68
2023/05/05 07:14:38;;;;;;;12.40;9.73;;;;;;;22.91;50.74;101560.16;6133477;23;20020;-68
2023/05/05 07:17:04;;;;;;;12.68;10.10;;;;;;;22.83;50.09;101572.09;6156832;23;20012;-68
2023/05/05 07:19:30;;;;;;;12.63;10.25;;;;;;;23.17;50.32;101567.69;6158114;23;20032;-67
2023/05/05 07:21:56;;;;;;;12.80;9.93;;;;;;;23.07;50.08;101566.41;6156575;23;20032;-68
2023/05/05 07:24:22;;;;;;;12.38;9.60;;;;;;;23.14;50.58;101572.31;6157685;23;20501;-72
2023/05/05 07:26:48;;;;;;;13.95;10.35;;;;;;;23.39;51.16;101577.22;6182857;23;20004;-72
2023/05/05 07:29:13;;;;;;;12.02;9.77;;;;;;;23.65;49.17;101580.28;6133191;23;20013;-73
2023/05/05 07:31:39;;;;;;;11.82;9.98;;;;;;;23.34;49.26;101581.94;6157875;23;20005;-73
2023/05/05 07:34:04;;;;;;;16.75;9.90;;;;;;;23.65;48.50;101578.47;6158192;23;20462;-73
2023/05/05 07:36:31;;;;;;;12.38;9.77;;;;;;;23.83;49.44;101587.28;6131783;23;20009;-72
2023/05/05 07:38:56;;;;;;;13.02;8.43;;;;;;;23.89;49.21;101586.09;6158212;23;20024;-73
2023/05/05 07:41:21;;;;;;;12.90;9.43;;;;;;;24.25;49.77;101581.41;6132406;23;20408;-68
2023/05/05 07:43:47;;;;;;;11.38;7.72;;;;;;;24.32;49.69;101582.78;6182030;23;20363;-67
2023/05/05 07:46:12;;;;;;;10.02;7.60;;;;;;;24.57;47.92;101576.88;6157412;23;20009;-67
2023/05/05 07:48:40;;;;;;;11.23;8.23;;;;;;;24.31;45.58;101575.69;6133660;23;20303;-67
2023/05/05 07:51:05;;;;;;;12.77;7.40;;;;;;;24.02;46.24;101571.09;6180762;23;20005;-68
2023/05/05 07:53:31;;;;;;;13.65;8.23;;;;;;;23.85;45.79;101571.16;6132510;23;20103;-67
2023/05/05 07:55:56;;;;;;;8.93;6.80;;;;;;;23.68;46.52;101577.44;6181914;23;20008;-67
2023/05/05 07:58:23;;;;;;;9.98;6.90;;;;;;;23.66;47.53;101568.63;6181463;23;20438;-67
2023/05/05 08:00:49;;;;;;;9.38;6.75;;;;;;;23.74;48.13;101570.88;6181013;23;20435;-67
2023/05/05 08:03:15;;;;;;;10.02;6.53;;;;;;;23.70;47.80;101575.53;6158202;23;20017;-67
2023/05/05 08:05:41;;;;;;;9.93;6.57;;;;;;;23.61;46.38;101570.69;6156240;23;20016;-67
2023/05/05 08:08:06;;;;;;;7.45;5.72;;;;;;;23.56;46.56;101565.63;6132713;23;20376;-68
2023/05/05 08:10:33;;;;;;;8.68;5.82;;;;;;;23.48;49.60;101565.16;6157636;23;20033;-68
2023/05/05 08:12:58;;;;;;;9.00;5.65;;;;;;;23.38;49.15;101569.28;6157964;23;20325;-68
2023/05/05 08:15:24;;;;;;;7.10;4.63;;;;;;;23.71;46.29;101561.22;6155926;23;20016;-67
2023/05/05 08:17:51;;;;;;;8.32;5.55;;;;;;;23.18;47.30;101560.53;6182814;23;20059;-67
2023/05/05 08:20:19;;;;;;;8.38;5.72;;;;;;;23.53;49.05;101557.72;6181624;23;20009;-67
2023/05/05 08:22:45;;;;;;;8.75;5.72;;;;;;;23.44;50.96;101556.44;6181944;23;20015;-67
2023/05/05 08:25:11;;;;;;;11.57;6.05;;;;;;;23.59;48.95;101567.22;6180607;23;20427;-67
2023/05/05 08:27:42;;;;;;;8.63;5.95;;;;;;;23.62;48.88;101572.41;6182011;23;20012;-67
2023/05/05 08:30:08;;;;;;;8.48;5.78;;;;;;;24.28;48.81;101576.75;6183821;23;20005;-67
2023/05/05 08:32:34;;;;;;;9.45;5.75;;;;;;;24.17;45.50;101580.03;6182408;23;20008;-67
2023/05/05 08:35:03;;;;;;;8.73;5.63;;;;;;;24.26;45.73;101577.78;6157529;23;20013;-67
2023/05/05 08:37:29;;;;;;;8.73;6.53;;;;;;;24.56;48.37;101575.97;6157012;23;20438;-67
2023/05/05 08:39:56;;;;;;;8.93;6.22;;;;;;;24.73;46.45;101577.69;6157657;23;20067;-67
2023/05/05 08:42:22;;;;;;;6.88;5.50;;;;;;;24.66;47.36;101572.81;6182343;23;20013;-67
2023/05/05 08:44:48;;;;;;;6.35;5.13;;;;;;;24.79;46.03;101565.75;6181812;23;20119;-67
2023/05/05 08:47:14;;;;;;;8.13;5.38;;;;;;;24.74;45.95;101583.94;6157020;23;20075;-67
2023/05/05 08:49:47;;;;;;;9.48;6.15;;;;;;;24.45;45.50;101590.97;6157805;23;20170;-67
2023/05/05 08:52:22;;;;;;;8.88;6.03;;;;;;;24.24;44.89;101587.72;6157652;23;20017;-67
2023/05/05 08:55:01;;;;;;;8.38;5.65;;;;;;;24.35;46.51;101586.16;6157901;23;20381;-67
2023/05/05 08:57:43;;;;;;;7.00;5.70;;;;;;;24.04;46.41;101581.69;6181951;23;20009;-68
2023/05/05 09:00:11;;;;;;;10.05;6.63;;;;;;;23.32;45.05;101581.19;6182224;23;20012;-67
2023/05/05 09:02:39;;;;;;;10.32;5.45;;;;;;;23.02;45.96;101576.47;6182427;23;20071;-67
2023/05/05 09:05:05;;;;;;;9.40;5.45;;;;;;;22.95;47.26;101575.94;6133495;23;20025;-67
2023/05/05 09:07:31;;;;;;;7.13;6.00;;;;;;;22.73;49.41;101584.19;6156431;23;20015;-67
2023/05/05 09:10:08;;;;;;;8.65;6.00;;;;;;;22.61;49.26;101575.03;6131441;23;20037;-67
2023/05/05 09:12:34;;;;;;;10.52;6.45;;;;;;;22.78;49.11;101575.94;6181946;23;20015;-68
2023/05/05 09:15:02;;;;;;;8.45;5.40;;;;;;;22.70;48.00;101572.78;6156647;23;20391;-67
2023/05/05 09:17:28;;;;;;;9.88;5.47;;;;;;;22.40;47.84;101579.63;6182480;23;20093;-67
2023/05/05 09:20:06;;;;;;;7.55;4.53;;;;;;;22.57;48.27;101578.78;6182421;23;20075;-67
2023/05/05 09:22:41;;;;;;;7.22;4.15;;;;;;;22.42;49.18;101577.72;6181148;23;20388;-67
2023/05/05 09:25:12;;;;;;;8.77;5.90;;;;;;;22.41;47.53;101577.81;6182547;23;20067;-67
2023/05/05 09:27:48;;;;;;;7.00;4.60;;;;;;;22.48;49.78;101579.22;6183954;23;20421;-67
2023/05/05 09:30:22;;;;;;;11.02;5.38;;;;;;;22.46;48.99;101579.31;6156398;23;20005;-67
2023/05/05 09:32:50;;;;;;;6.50;4.80;;;;;;;22.58;50.03;101590.31;6181503;23;20024;-67
2023/05/05 09:35:16;;;;;;;6.72;3.50;;;;;;;22.53;48.32;101587.88;6157243;23;20092;-67
2023/05/05 09:37:42;;;;;;;6.90;3.88;;;;;;;22.69;48.48;101587.97;6157171;23;20321;-67
2023/05/05 09:40:09;;;;;;;6.53;4.32;;;;;;;22.20;46.59;101590.41;6182237;23;20012;-67
2023/05/05 09:42:36;;;;;;;8.60;4.40;;;;;;;21.96;52.06;101586.16;6181942;23;20600;-67
2023/05/05 09:45:03;;;;;;;9.05;5.22;;;;;;;21.85;49.06;101584.94;6157244;23;20020;-67
2023/05/05 09:47:36;;;;;;;7.47;5.00;;;;;;;21.91;52.05;101579.31;6158393;23;20059;-67
2023/05/05 09:50:02;;;;;;;9.90;5.68;;;;;;;21.72;52.37;101574.88;6185737;23;20008;-67
2023/05/05 09:52:29;;;;;;;7.20;4.85;;;;;;;21.82;50.18;101583.28;6183155;23;20331;-67
2023/05/05 09:54:55;;;;;;;8.98;5.30;;;;;;;21.82;49.29;101574.41;6159147;23;20075;-67
2023/05/05 09:57:32;;;;;;;10.10;5.53;;;;;;;21.65;50.99;101578.75;6184237;23;20001;-67
2023/05/05 10:00:01;;;;;;;9.20;5.97;;;;;;;21.54;50.08;101576.56;6184082;23;20009;-67
2023/05/05 10:02:34;;;;;;;8.80;5.38;;;;;;;21.61;51.42;101572.69;6183423;23;20033;-67
2023/05/05 10:05:11;;;;;;;10.18;6.63;;;;;;;21.65;51.47;101564.53;6130826;23;20022;-67
2023/05/05 10:07:38;;;;;;;6.90;5.05;;;;;;;21.57;51.85;101562.25;6129121;23;20104;-67
2023/05/05 10:10:06;;;;;;;8.00;4.95;;;;;;;21.35;51.69;101565.88;6081083;23;20100;-67
2023/05/05 10:12:35;;;;;;;7.38;5.25;;;;;;;21.26;52.25;101567.16;6129869;23;20055;-67
2023/05/05 10:15:02;;;;;;;7.72;5.72;;;;;;;21.43;50.66;101569.06;6128924;23;20055;-67
2023/05/05 10:17:33;;;;;;;9.23;5.95;;;;;;;21.22;50.37;101570.00;6129508;23;20008;-67
2023/05/05 10:20:00;;;;;;;12.95;5.53;;;;;;;21.29;51.56;101560.78;6129105;23;20511;-67
2023/05/05 10:22:28;;;;;;;7.30;5.60;;;;;;;21.00;50.28;101560.31;6080423;23;20005;-67
2023/05/05 10:25:01;;;;;;;8.98;5.35;;;;;;;21.16;51.77;101562.28;6129202;23;20372;-67
2023/05/05 10:27:27;;;;;;;8.95;5.18;;;;;;;21.00;52.87;101560.31;6129507;23;20009;-67
2023/05/05 10:30:06;;;;;;;8.88;5.35;;;;;;;21.09;53.01;101556.38;6128967;23;20002;-67
2023/05/05 10:32:47;;;;;;;6.75;5.03;;;;;;;21.16;53.62;101551.63;6080932;23;20459;-67
2023/05/05 10:35:19;;;;;;;7.93;4.88;;;;;;;21.03;54.12;101559.31;6129296;23;20057;-67
2023/05/05 10:37:46;;;;;;;7.25;4.82;;;;;;;20.85;53.56;101550.34;6127670;23;20416;-67
2023/05/05 10:40:13;;;;;;;8.13;4.60;;;;;;;20.66;54.64;101556.44;6128881;23;20009;-67
2023/05/05 10:42:39;;;;;;;8.15;5.30;;;;;;;20.41;53.98;101562.78;6156020;23;20005;-67
2023/05/05 10:45:07;;;;;;;7.68;4.88;;;;;;;20.27;55.05;101565.16;6080854;23;20015;-67
2023/05/05 10:47:34;;;;;;;11.40;4.65;;;;;;;20.06;53.79;101567.75;6104635;23;20088;-67
2023/05/05 10:50:14;;;;;;;6.80;4.20;;;;;;;19.79;54.40;101563.53;6105468;23;20084;-67
2023/05/05 10:52:43;;;;;;;12.57;4.67;;;;;;;19.57;59.13;101574.97;6128877;23;20060;-68
2023/05/05 10:55:17;;;;;;;8.80;4.88;;;;;;;19.26;61.73;101594.69;6128900;23;20088;-67
2023/05/05 10:57:51;;;;;;;7.63;3.70;;;;;;;18.86;61.93;101590.75;6127569;23;20344;-67
2023/05/05 11:00:37;;;;;;;5.88;3.47;;;;;;;18.67;61.92;101578.09;6128026;23;20089;-67
2023/05/05 11:03:21;;;;;;;7.45;3.00;;;;;;;18.38;62.18;101587.03;6132364;23;20005;-69
2023/05/05 11:06:06;;;;;;;6.78;3.15;;;;;;;18.23;63.76;101585.75;6127699;23;20017;-67
2023/05/05 11:08:37;;;;;;;5.78;2.38;;;;;;;18.26;64.84;101583.00;6127770;23;20013;-67
2023/05/05 11:11:03;;;;;;;3.97;1.70;;;;;;;18.21;62.77;101587.56;6103745;23;20080;-67
2023/05/05 11:13:30;;;;;;;3.80;2.08;;;;;;;18.17;64.70;101589.47;6104373;23;20014;-67
2023/05/05 11:16:01;;;;;;;5.00;2.97;;;;;;;18.03;67.19;101589.03;6128003;23;20151;-67
2023/05/05 11:18:42;;;;;;;8.40;4.20;;;;;;;18.02;67.64;101589.94;6104145;23;20052;-67
2023/05/05 11:21:15;;;;;;;9.25;4.82;;;;;;;17.82;70.03;101594.03;6103245;23;20009;-67
2023/05/05 11:23:41;;;;;;;11.00;5.38;;;;;;;17.66;72.11;101592.78;6128786;23;20013;-67